createdAt,value
2023-05-01T00:00:24.579Z,61.3434
2023-05-01T00:01:25.678Z,61.8719
2023-05-01T00:02:26.797Z,62.1236
2023-05-01T00:03:27.878Z,62.5462
2023-05-01T00:04:28.763Z,62.7366
2023-05-01T00:05:29.785Z,63.1997
2023-05-01T00:06:30.926Z,63.0460
2023-05-01T00:07:31.929Z,63.9265
2023-05-01T00:08:32.909Z,63.6182
2023-05-01T00:09:33.945Z,63.4003
2023-05-01T00:10:34.957Z,63.1903
2023-05-01T00:11:36.063Z,63.1420
2023-05-01T00:12:37.155Z,63.4756
2023-05-01T00:13:38.081Z,63.4710
2023-05-01T00:14:39.108Z,63.1932
2023-05-01T00:15:40.159Z,63.5637
2023-05-01T00:16:41.258Z,63.3031
2023-05-01T00:17:42.320Z,63.5041
2023-05-01T00:18:43.259Z,63.6295
2023-05-01T00:19:44.310Z,63.1386
2023-05-01T00:20:45.322Z,63.4700
2023-05-01T00:21:46.459Z,63.4520
2023-05-01T00:22:47.423Z,63.4280
2023-05-01T00:23:48.471Z,63.2574
2023-05-01T00:24:49.482Z,62.8085
2023-05-01T00:25:50.558Z,62.1188
2023-05-01T00:26:51.597Z,61.6415
2023-05-01T00:27:52.651Z,62.3237
2023-05-01T00:28:53.936Z,62.6754
2023-05-01T00:29:54.943Z,63.1059
2023-05-01T00:30:55.732Z,63.4120
2023-05-01T00:31:56.838Z,63.4902
2023-05-01T00:32:57.860Z,63.6618
2023-05-01T00:33:58.913Z,64.1023
2023-05-01T00:34:59.880Z,64.0592
2023-05-01T00:36:00.961Z,64.7171
2023-05-01T00:37:01.957Z,64.2309
2023-05-01T00:38:03.088Z,63.7852
2023-05-01T00:39:04.061Z,63.4076
2023-05-01T00:40:05.100Z,63.3829
2023-05-01T00:41:06.138Z,64.1541
2023-05-01T00:42:07.207Z,63.1588
2023-05-01T00:43:08.237Z,62.9334
2023-05-01T00:44:09.287Z,63.4075
2023-05-01T00:45:10.260Z,63.8587
2023-05-01T00:46:11.376Z,64.0720
2023-05-01T00:47:12.339Z,64.7280
2023-05-01T00:48:13.435Z,63.6589
2023-05-01T00:49:14.437Z,64.6696
2023-05-01T00:50:15.489Z,65.3327
2023-05-01T00:51:16.506Z,66.0210
2023-05-01T00:52:17.565Z,66.5764
2023-05-01T00:53:18.577Z,66.1962
2023-05-01T00:54:19.656Z,65.3476
2023-05-01T00:55:20.645Z,65.5333
2023-05-01T00:56:21.656Z,66.1903
2023-05-01T00:57:22.672Z,66.6009
2023-05-01T00:58:23.750Z,67.5614
2023-05-01T00:59:24.793Z,67.1784
2023-05-01T01:00:25.849Z,67.4261
2023-05-01T01:01:26.973Z,66.7391
2023-05-01T01:02:27.922Z,67.7493
2023-05-01T01:03:29.006Z,68.3487
2023-05-01T01:04:30.074Z,68.2040
2023-05-01T01:05:31.022Z,69.2582
2023-05-01T01:06:32.058Z,69.8949
2023-05-01T01:07:33.094Z,69.8098
2023-05-01T01:08:34.161Z,68.9475
2023-05-01T01:09:35.334Z,69.5622
2023-05-01T01:10:36.161Z,69.6441
2023-05-01T01:11:37.221Z,70.6177
2023-05-01T01:12:38.252Z,70.2560
2023-05-01T01:13:39.301Z,69.9438
2023-05-01T01:14:40.301Z,70.7743
2023-05-01T01:15:41.320Z,71.2979
2023-05-01T01:16:42.354Z,71.2227
2023-05-01T01:17:43.417Z,71.6067
2023-05-01T01:18:44.438Z,71.9740
2023-05-01T01:19:45.490Z,72.6560
2023-05-01T01:20:46.507Z,73.2853
2023-05-01T01:21:47.586Z,73.2172
2023-05-01T01:22:48.514Z,73.4012
2023-05-01T01:23:49.584Z,73.4007
2023-05-01T01:24:50.593Z,73.0585
2023-05-01T01:25:51.652Z,73.4182
2023-05-01T01:26:52.645Z,73.3127
2023-05-01T01:27:53.692Z,73.9212
2023-05-01T01:28:54.765Z,74.0875
2023-05-01T01:29:56.200Z,74.4484
2023-05-01T01:30:56.908Z,74.5589
2023-05-01T01:31:57.825Z,74.5147
2023-05-01T01:32:58.885Z,74.5240
2023-05-01T01:33:59.945Z,74.7679
2023-05-01T01:35:00.934Z,75.2668
2023-05-01T01:36:01.970Z,75.3672
2023-05-01T01:37:02.999Z,75.5932
2023-05-01T01:38:04.016Z,75.8963
2023-05-01T01:39:05.091Z,75.9572
2023-05-01T01:40:06.171Z,76.1311
2023-05-01T01:41:07.174Z,76.2908
2023-05-01T01:42:08.210Z,76.9886
2023-05-01T01:43:09.183Z,77.4708
2023-05-01T01:44:10.274Z,77.9244
2023-05-01T01:45:11.273Z,77.2471
2023-05-01T01:46:12.382Z,76.2462
2023-05-01T01:47:13.356Z,76.3908
2023-05-01T01:48:14.378Z,76.9144
2023-05-01T01:49:15.382Z,76.9344
2023-05-01T01:50:16.537Z,76.5953
2023-05-01T01:51:17.496Z,77.1228
2023-05-01T01:52:18.551Z,77.5780
2023-05-01T01:53:19.590Z,77.3080
2023-05-01T01:54:20.591Z,78.1449
2023-05-01T01:55:21.611Z,79.1605
2023-05-01T01:56:22.658Z,79.2215
2023-05-01T01:57:23.704Z,79.1678
2023-05-01T01:58:24.747Z,79.6395
2023-05-01T01:59:25.742Z,79.5386
2023-05-01T02:00:26.801Z,79.3664
2023-05-01T02:01:27.824Z,79.3059
2023-05-01T02:02:28.980Z,79.8350
2023-05-01T02:03:29.971Z,79.3957
2023-05-01T02:04:30.949Z,79.6075
2023-05-01T02:05:31.939Z,79.7975
2023-05-01T02:06:33.040Z,80.4279
2023-05-01T02:07:34.021Z,80.6959
2023-05-01T02:08:35.120Z,81.4392
2023-05-01T02:09:36.136Z,81.6455
2023-05-01T02:10:37.155Z,81.6698
2023-05-01T02:11:38.194Z,82.2647
2023-05-01T02:12:39.212Z,81.8344
2023-05-01T02:13:40.297Z,81.8786
2023-05-01T02:14:41.345Z,82.0943
2023-05-01T02:15:42.347Z,82.2638
2023-05-01T02:16:43.393Z,82.0820
2023-05-01T02:17:44.407Z,81.5084
2023-05-01T02:18:45.473Z,81.6282
2023-05-01T02:19:46.517Z,81.7294
2023-05-01T02:20:47.542Z,82.1139
2023-05-01T02:21:48.533Z,82.2882
2023-05-01T02:22:49.573Z,82.5144
2023-05-01T02:23:50.623Z,82.6278
2023-05-01T02:24:51.673Z,82.1399
2023-05-01T02:25:52.655Z,81.5414
2023-05-01T02:26:53.693Z,81.1201
2023-05-01T02:27:54.723Z,80.3476
2023-05-01T02:28:55.791Z,80.2161
2023-05-01T02:29:57.150Z,80.5031
2023-05-01T02:30:57.853Z,80.3131
2023-05-01T02:31:59.056Z,80.8027
2023-05-01T02:32:59.958Z,80.9981
2023-05-01T02:34:00.955Z,80.7526
2023-05-01T02:35:02.001Z,80.2941
2023-05-01T02:36:02.977Z,80.0291
2023-05-01T02:37:04.010Z,80.6046
2023-05-01T02:38:05.036Z,80.3235
2023-05-01T02:39:06.136Z,80.6164
2023-05-01T02:40:07.165Z,80.6704
2023-05-01T02:41:08.175Z,80.1555
2023-05-01T02:42:09.233Z,79.0739
2023-05-01T02:43:10.255Z,79.1625
2023-05-01T02:44:11.281Z,79.2743
2023-05-01T02:45:12.314Z,79.9073
2023-05-01T02:46:13.341Z,80.4875
2023-05-01T02:47:14.407Z,79.5304
2023-05-01T02:48:15.381Z,80.0602
2023-05-01T02:49:16.479Z,79.9565
2023-05-01T02:50:17.516Z,79.4081
2023-05-01T02:51:18.504Z,79.6598
2023-05-01T02:52:19.543Z,79.4671
2023-05-01T02:53:20.598Z,79.7746
2023-05-01T02:54:21.633Z,80.5272
2023-05-01T02:55:22.679Z,80.5721
2023-05-01T02:56:23.679Z,80.8534
2023-05-01T02:57:24.743Z,80.6282
2023-05-01T02:58:25.776Z,81.1955
2023-05-01T02:59:26.826Z,81.0384
2023-05-01T03:00:27.869Z,80.9830
2023-05-01T03:01:28.905Z,80.5190
2023-05-01T03:02:29.878Z,79.9582
2023-05-01T03:03:30.942Z,79.9776
2023-05-01T03:04:32.038Z,80.1372
2023-05-01T03:05:33.024Z,80.3007
2023-05-01T03:06:34.073Z,80.9467
2023-05-01T03:07:35.102Z,81.4253
2023-05-01T03:08:36.103Z,81.7516
2023-05-01T03:09:37.158Z,82.1022
2023-05-01T03:10:38.217Z,81.8689
2023-05-01T03:11:39.203Z,81.5711
2023-05-01T03:12:40.257Z,81.2031
2023-05-01T03:13:41.256Z,81.7767
2023-05-01T03:14:42.333Z,82.2873
2023-05-01T03:15:43.338Z,81.4701
2023-05-01T03:16:44.433Z,81.8773
2023-05-01T03:17:45.408Z,81.4411
2023-05-01T03:18:46.441Z,81.2900
2023-05-01T03:19:47.457Z,81.4382
2023-05-01T03:20:48.529Z,81.7786
2023-05-01T03:21:49.519Z,81.9619
2023-05-01T03:22:50.568Z,82.3505
2023-05-01T03:23:51.593Z,82.7108
2023-05-01T03:24:52.668Z,81.7091
2023-05-01T03:25:53.698Z,81.6017
2023-05-01T03:26:54.737Z,81.1782
2023-05-01T03:27:55.713Z,81.1079
2023-05-01T03:28:56.762Z,80.8705
2023-05-01T03:29:58.060Z,81.2796
2023-05-01T03:30:58.876Z,81.7222
2023-05-01T03:31:59.940Z,82.4043
2023-05-01T03:33:00.975Z,82.0208
2023-05-01T03:34:01.918Z,81.6878
2023-05-01T03:35:03.113Z,81.6594
2023-05-01T03:36:04.044Z,81.9766
2023-05-01T03:37:05.061Z,82.4830
2023-05-01T03:38:06.110Z,82.3405
2023-05-01T03:39:07.136Z,82.3881
2023-05-01T03:40:08.184Z,82.1643
2023-05-01T03:41:09.211Z,82.0406
2023-05-01T03:42:10.210Z,82.2093
2023-05-01T03:43:11.273Z,82.3802
2023-05-01T03:44:12.251Z,81.5778
2023-05-01T03:45:13.339Z,80.1256
2023-05-01T03:46:14.421Z,79.8803
2023-05-01T03:47:15.388Z,80.5834
2023-05-01T03:48:16.397Z,79.9228
2023-05-01T03:49:17.469Z,79.4001
2023-05-01T03:50:18.508Z,79.7168
2023-05-01T03:51:19.533Z,79.9945
2023-05-01T03:52:20.508Z,79.9992
2023-05-01T03:53:21.570Z,79.2693
2023-05-01T03:54:22.613Z,79.8132
2023-05-01T03:55:23.675Z,80.2637
2023-05-01T03:56:24.653Z,80.5365
2023-05-01T03:57:25.753Z,80.3765
2023-05-01T03:58:26.721Z,80.4407
2023-05-01T03:59:27.827Z,80.8493
2023-05-01T04:00:28.812Z,80.5763
2023-05-01T04:01:29.873Z,80.7110
2023-05-01T04:02:30.973Z,80.6229
2023-05-01T04:03:31.974Z,80.5696
2023-05-01T04:04:33.049Z,80.7116
2023-05-01T04:05:33.992Z,81.1175
2023-05-01T04:06:35.081Z,81.2763
2023-05-01T04:07:36.056Z,81.4220
2023-05-01T04:08:37.054Z,81.6786
2023-05-01T04:09:38.123Z,81.4242
2023-05-01T04:10:39.163Z,80.8214
2023-05-01T04:11:40.215Z,80.9296
2023-05-01T04:12:41.194Z,81.4086
2023-05-01T04:13:42.322Z,81.9282
2023-05-01T04:14:43.280Z,81.9768
2023-05-01T04:15:44.393Z,82.5039
2023-05-01T04:16:45.359Z,82.6745
2023-05-01T04:17:46.402Z,82.8113
2023-05-01T04:18:47.412Z,82.6043
2023-05-01T04:19:48.464Z,82.5802
2023-05-01T04:20:49.510Z,83.1448
2023-05-01T04:21:50.553Z,83.6608
2023-05-01T04:22:51.518Z,83.8486
2023-05-01T04:23:52.570Z,83.8014
2023-05-01T04:24:53.604Z,83.7742
2023-05-01T04:25:54.729Z,84.1438
2023-05-01T04:26:55.710Z,83.6007
2023-05-01T04:27:56.752Z,83.5311
2023-05-01T04:28:57.757Z,82.6763
2023-05-01T04:29:59.040Z,82.3544
2023-05-01T04:30:59.840Z,82.1232
2023-05-01T04:32:00.984Z,82.3173
2023-05-01T04:33:02.008Z,82.7255
2023-05-01T04:34:02.944Z,82.9466
2023-05-01T04:35:04.319Z,83.0997
2023-05-01T04:36:05.003Z,83.2804
2023-05-01T04:37:06.032Z,82.9128
2023-05-01T04:38:07.089Z,83.3988
2023-05-01T04:39:08.070Z,83.2813
2023-05-01T04:40:11.262Z,82.9171
2023-05-01T04:41:10.148Z,83.0932
2023-05-01T04:42:11.233Z,83.1949
2023-05-01T04:43:12.230Z,83.2652
2023-05-01T04:44:13.258Z,83.5812
2023-05-01T04:45:14.273Z,83.5727
2023-05-01T04:46:15.331Z,83.7981
2023-05-01T04:47:16.367Z,83.9752
2023-05-01T04:48:17.439Z,83.3161
2023-05-01T04:49:18.389Z,83.4960
2023-05-01T04:50:19.455Z,83.1884
2023-05-01T04:51:20.457Z,83.5441
2023-05-01T04:52:21.582Z,84.0488
2023-05-01T04:53:22.602Z,84.1025
2023-05-01T04:54:23.588Z,83.7705
2023-05-01T04:55:24.599Z,84.1181
2023-05-01T04:56:25.662Z,83.8748
2023-05-01T04:57:26.687Z,83.9991
2023-05-01T04:58:27.710Z,83.5377
2023-05-01T04:59:28.752Z,83.1786
2023-05-01T05:00:29.768Z,83.0718
2023-05-01T05:01:30.903Z,83.3163
2023-05-01T05:02:32.128Z,83.5220
2023-05-01T05:03:33.032Z,82.9968
2023-05-01T05:04:34.030Z,83.2877
2023-05-01T05:05:35.008Z,83.8200
2023-05-01T05:06:36.075Z,82.9777
2023-05-01T05:07:37.066Z,82.6782
2023-05-01T05:08:38.130Z,82.9150
2023-05-01T05:09:39.155Z,82.7697
2023-05-01T05:10:40.154Z,82.6014
2023-05-01T05:11:41.217Z,83.2490
2023-05-01T05:12:42.242Z,83.2154
2023-05-01T05:13:43.349Z,82.9943
2023-05-01T05:14:44.350Z,82.4264
2023-05-01T05:15:45.374Z,82.3626
2023-05-01T05:16:46.401Z,82.8768
2023-05-01T05:17:47.463Z,83.1586
2023-05-01T05:18:48.478Z,83.0947
2023-05-01T05:19:49.532Z,83.1344
2023-05-01T05:20:50.523Z,82.8430
2023-05-01T05:21:51.536Z,83.2848
2023-05-01T05:22:52.550Z,82.7518
2023-05-01T05:23:53.655Z,82.4163
2023-05-01T05:24:54.667Z,82.0523
2023-05-01T05:25:55.713Z,82.5350
2023-05-01T05:26:56.730Z,83.1614
2023-05-01T05:27:57.750Z,83.4562
2023-05-01T05:28:58.750Z,83.0396
2023-05-01T05:29:59.858Z,83.3455
2023-05-01T05:31:00.875Z,83.2249
2023-05-01T05:32:01.992Z,83.1017
2023-05-01T05:33:03.025Z,82.9441
2023-05-01T05:34:03.953Z,82.5735
2023-05-01T05:35:04.951Z,82.2533
2023-05-01T05:36:06.053Z,82.0289
2023-05-01T05:37:07.075Z,81.8493
2023-05-01T05:38:08.092Z,81.8369
2023-05-01T05:39:09.116Z,82.5597
2023-05-01T05:40:10.177Z,82.6483
2023-05-01T05:41:11.210Z,82.7719
2023-05-01T05:42:12.248Z,82.9618
2023-05-01T05:43:13.237Z,82.9013
2023-05-01T05:44:14.280Z,82.5042
2023-05-01T05:45:15.282Z,82.1623
2023-05-01T05:46:16.360Z,82.2609
2023-05-01T05:47:17.395Z,82.3354
2023-05-01T05:48:18.405Z,82.6308
2023-05-01T05:49:19.432Z,82.7648
2023-05-01T05:50:20.476Z,82.3760
2023-05-01T05:51:21.523Z,81.9673
2023-05-01T05:52:22.577Z,81.9736
2023-05-01T05:53:25.706Z,82.6918
2023-05-01T05:54:24.637Z,82.5977
2023-05-01T05:55:25.605Z,82.6689
2023-05-01T05:56:26.699Z,83.0881
2023-05-01T05:57:27.697Z,83.1692
2023-05-01T05:58:28.743Z,83.3324
2023-05-01T05:59:29.757Z,83.3631
2023-05-01T06:00:30.892Z,83.4313
2023-05-01T06:01:31.867Z,83.6317
2023-05-01T06:02:33.035Z,83.3585
2023-05-01T06:03:34.100Z,82.7396
2023-05-01T06:04:34.938Z,82.9261
2023-05-01T06:05:35.976Z,83.2579
2023-05-01T06:06:37.124Z,83.1910
2023-05-01T06:07:38.054Z,82.7619
2023-05-01T06:08:39.136Z,83.1731
2023-05-01T06:09:40.178Z,83.0814
2023-05-01T06:10:41.259Z,82.9590
2023-05-01T06:11:42.302Z,82.4361
2023-05-01T06:12:50.005Z,82.5308
2023-05-01T06:13:44.391Z,82.2569
2023-05-01T06:14:45.370Z,82.5261
2023-05-01T06:15:46.466Z,82.8589
2023-05-01T06:16:47.439Z,83.0471
2023-05-01T06:17:48.612Z,83.0513
2023-05-01T06:18:49.538Z,82.8124
2023-05-01T06:19:50.521Z,82.9480
2023-05-01T06:20:51.533Z,82.6360
2023-05-01T06:21:52.598Z,82.7085
2023-05-01T06:22:53.664Z,82.1644
2023-05-01T06:23:54.725Z,81.8538
2023-05-01T06:24:55.697Z,82.2467
2023-05-01T06:25:56.735Z,82.1904
2023-05-01T06:26:58.681Z,81.8141
2023-05-01T06:27:58.854Z,81.1342
2023-05-01T06:28:59.920Z,82.2325
2023-05-01T06:30:00.941Z,82.2431
2023-05-01T06:31:01.815Z,81.7411
2023-05-01T06:32:02.899Z,81.8102
2023-05-01T06:33:03.913Z,82.4784
2023-05-01T06:34:04.951Z,83.2713
2023-05-01T06:35:05.921Z,83.5227
2023-05-01T06:36:06.973Z,82.9567
2023-05-01T06:37:08.024Z,83.2784
2023-05-01T06:38:09.092Z,82.6084
2023-05-01T06:39:10.117Z,82.6618
2023-05-01T06:40:11.135Z,81.9015
2023-05-01T06:41:12.160Z,81.9354
2023-05-01T06:42:13.174Z,82.0569
2023-05-01T06:43:14.248Z,82.2398
2023-05-01T06:44:15.291Z,82.0252
2023-05-01T06:45:16.312Z,82.2672
2023-05-01T06:46:17.388Z,82.3365
2023-05-01T06:47:18.320Z,81.7262
2023-05-01T06:48:19.370Z,81.7821
2023-05-01T06:49:20.411Z,82.1988
2023-05-01T06:50:21.491Z,82.5877
2023-05-01T06:51:22.491Z,82.2336
2023-05-01T06:52:23.537Z,82.2175
2023-05-01T06:53:24.558Z,82.8461
2023-05-01T06:54:25.704Z,82.9463
2023-05-01T06:55:26.671Z,82.7321
2023-05-01T06:56:27.669Z,82.7566
2023-05-01T06:57:28.692Z,82.3431
2023-05-01T06:58:29.753Z,81.2870
2023-05-01T06:59:30.792Z,81.4431
2023-05-01T07:00:31.837Z,82.3715
2023-05-01T07:01:35.322Z,82.6318
2023-05-01T07:02:33.943Z,82.1869
2023-05-01T07:03:35.013Z,81.7765
2023-05-01T07:04:35.976Z,82.5389
2023-05-01T07:05:37.008Z,82.3900
2023-05-01T07:06:38.154Z,81.7759
2023-05-01T07:07:47.280Z,81.4907
2023-05-01T07:08:40.082Z,81.3724
2023-05-01T07:09:41.166Z,81.6261
2023-05-01T07:10:42.496Z,81.8944
2023-05-01T07:11:43.234Z,81.6868
2023-05-01T07:12:44.198Z,80.4929
2023-05-01T07:13:45.260Z,79.8007
2023-05-01T07:14:46.338Z,81.3690
2023-05-01T07:15:47.352Z,81.7823
2023-05-01T07:16:48.490Z,82.2200
2023-05-01T07:17:49.449Z,82.5359
2023-05-01T07:18:50.466Z,82.6844
2023-05-01T07:19:51.495Z,81.8495
2023-05-01T07:20:52.540Z,82.5467
2023-05-01T07:21:53.553Z,82.9264
2023-05-01T07:22:54.587Z,82.4355
2023-05-01T07:23:55.784Z,82.1842
2023-05-01T07:24:56.720Z,82.7632
2023-05-01T07:25:57.713Z,82.4535
2023-05-01T07:26:58.722Z,82.9244
2023-05-01T07:27:59.757Z,83.0923
2023-05-01T07:29:00.796Z,83.0026
2023-05-01T07:30:01.870Z,83.9325
2023-05-01T07:31:02.937Z,83.9685
2023-05-01T07:32:04.088Z,83.4724
2023-05-01T07:33:04.963Z,82.7272
2023-05-01T07:34:05.934Z,82.5031
2023-05-01T07:35:07.009Z,81.6519
2023-05-01T07:36:08.139Z,82.6442
2023-05-01T07:37:09.290Z,83.2789
2023-05-01T07:38:10.076Z,83.0247
2023-05-01T07:39:11.142Z,83.6105
2023-05-01T07:40:12.221Z,83.7142
2023-05-01T07:41:13.213Z,82.4366
2023-05-01T07:42:14.272Z,81.8928
2023-05-01T07:43:15.262Z,82.3386
2023-05-01T07:44:16.304Z,82.9729
2023-05-01T07:45:17.316Z,82.4210
2023-05-01T07:46:18.403Z,82.4631
2023-05-01T07:47:19.468Z,82.5920
2023-05-01T07:48:20.437Z,81.3812
2023-05-01T07:49:21.578Z,81.5420
2023-05-01T07:50:22.483Z,82.1707
2023-05-01T07:51:23.570Z,81.3756
2023-05-01T07:52:24.588Z,81.7758
2023-05-01T07:53:25.619Z,81.6826
2023-05-01T07:54:26.634Z,82.2344
2023-05-01T07:55:27.699Z,82.5939
2023-05-01T07:56:28.738Z,82.6214
2023-05-01T07:57:29.771Z,82.3021
2023-05-01T07:58:30.758Z,81.7927
2023-05-01T07:59:31.821Z,81.0926
2023-05-01T08:00:32.815Z,81.6037
2023-05-01T08:01:33.932Z,81.7629
2023-05-01T08:02:34.978Z,81.1613
2023-05-01T08:03:36.003Z,80.8298
2023-05-01T08:04:37.023Z,80.6168
2023-05-01T08:05:38.148Z,79.7976
2023-05-01T08:06:39.189Z,80.1884
2023-05-01T08:07:40.127Z,80.9261
2023-05-01T08:08:41.149Z,81.4251
2023-05-01T08:09:42.333Z,81.4091
2023-05-01T08:10:43.173Z,81.3189
2023-05-01T08:11:44.209Z,81.1758
2023-05-01T08:12:45.297Z,80.5482
2023-05-01T08:13:46.367Z,80.5838
2023-05-01T08:14:47.309Z,80.2599
2023-05-01T08:15:48.493Z,80.0136
2023-05-01T08:16:49.520Z,80.0942
2023-05-01T08:17:50.678Z,80.1286
2023-05-01T08:18:51.631Z,79.9355
2023-05-01T08:19:52.654Z,80.0282
2023-05-01T08:20:53.639Z,79.9568
2023-05-01T08:21:54.657Z,79.5889
2023-05-01T08:22:55.734Z,79.6959
2023-05-01T08:23:56.773Z,80.1376
2023-05-01T08:24:57.831Z,80.7090
2023-05-01T08:25:58.841Z,80.5244
2023-05-01T08:26:59.876Z,80.7962
2023-05-01T08:28:00.935Z,80.6112
2023-05-01T08:29:02.025Z,80.5157
2023-05-01T08:30:03.006Z,80.1902
2023-05-01T08:31:04.067Z,80.8964
2023-05-01T08:32:04.951Z,81.2781
2023-05-01T08:33:06.183Z,81.4685
2023-05-01T08:34:07.241Z,81.1729
2023-05-01T08:35:08.157Z,81.4442
2023-05-01T08:36:09.199Z,81.9192
2023-05-01T08:37:10.316Z,81.3714
2023-05-01T08:38:11.385Z,81.7351
2023-05-01T08:39:12.436Z,82.1845
2023-05-01T08:40:13.401Z,81.6803
2023-05-01T08:41:14.425Z,81.6074
2023-05-01T08:42:15.460Z,81.4703
2023-05-01T08:43:16.512Z,80.6045
2023-05-01T08:44:17.582Z,81.6893
2023-05-01T08:45:18.499Z,81.8642
2023-05-01T08:46:19.592Z,81.3468
2023-05-01T08:47:20.672Z,81.9221
2023-05-01T08:48:21.674Z,81.3446
2023-05-01T08:49:22.673Z,81.2612
2023-05-01T08:50:23.721Z,81.1088
2023-05-01T08:51:24.714Z,80.5889
2023-05-01T08:52:25.751Z,79.9298
2023-05-01T08:53:26.826Z,79.9440
2023-05-01T08:54:27.870Z,80.5342
2023-05-01T08:55:28.909Z,80.1652
2023-05-01T08:56:29.986Z,79.5217
2023-05-01T08:57:30.915Z,80.0492
2023-05-01T08:58:32.125Z,80.4737
2023-05-01T08:59:33.038Z,81.0898
2023-05-01T09:00:34.041Z,81.4126
2023-05-01T09:01:35.170Z,80.3835
2023-05-01T09:02:36.219Z,80.0088
2023-05-01T09:03:37.260Z,80.1968
2023-05-01T09:04:38.271Z,79.6467
2023-05-01T09:05:39.312Z,79.7215
2023-05-01T09:06:40.388Z,80.1573
2023-05-01T09:07:41.346Z,79.8642
2023-05-01T09:08:42.446Z,79.0383
2023-05-01T09:09:43.513Z,79.2770
2023-05-01T09:10:44.484Z,79.9916
2023-05-01T09:11:45.572Z,80.7576
2023-05-01T09:12:46.550Z,81.1375
2023-05-01T09:13:47.610Z,80.8643
2023-05-01T09:14:48.747Z,80.5189
2023-05-01T09:15:49.676Z,80.0767
2023-05-01T09:16:50.813Z,79.0899
2023-05-01T09:17:51.758Z,79.6319
2023-05-01T09:18:52.768Z,79.3662
2023-05-01T09:19:53.834Z,79.7858
2023-05-01T09:20:54.809Z,79.9658
2023-05-01T09:21:55.867Z,79.2544
2023-05-01T09:22:56.878Z,79.5040
2023-05-01T09:23:57.930Z,80.5082
2023-05-01T09:24:59.028Z,80.3955
2023-05-01T09:26:00.036Z,79.8673
2023-05-01T09:27:01.107Z,80.0227
2023-05-01T09:28:02.053Z,80.2902
2023-05-01T09:29:03.203Z,80.7410
2023-05-01T09:30:04.187Z,80.7570
2023-05-01T09:31:05.150Z,80.6313
2023-05-01T09:32:06.206Z,80.5731
2023-05-01T09:33:07.285Z,80.2112
2023-05-01T09:34:08.299Z,79.6692
2023-05-01T09:35:09.356Z,78.8932
2023-05-01T09:36:10.290Z,79.4183
2023-05-01T09:37:11.385Z,78.7644
2023-05-01T09:38:12.372Z,78.3691
2023-05-01T09:39:13.497Z,78.2466
2023-05-01T09:40:14.568Z,78.5483
2023-05-01T09:41:15.491Z,77.9417
2023-05-01T09:42:16.568Z,78.9142
2023-05-01T09:43:17.556Z,79.5451
2023-05-01T09:44:18.629Z,80.4828
2023-05-01T09:45:19.727Z,79.7858
2023-05-01T09:46:20.708Z,79.1736
2023-05-01T09:47:21.772Z,78.1440
2023-05-01T09:48:22.713Z,78.2447
2023-05-01T09:49:23.784Z,78.2315
2023-05-01T09:50:24.856Z,77.3949
2023-05-01T09:51:25.812Z,78.2599
2023-05-01T09:52:26.815Z,78.8574
2023-05-01T09:53:27.987Z,79.3037
2023-05-01T09:54:28.934Z,79.7605
2023-05-01T09:55:30.032Z,79.5084
2023-05-01T09:56:31.067Z,79.1765
2023-05-01T09:57:32.032Z,78.5444
2023-05-01T09:58:33.056Z,78.8208
2023-05-01T09:59:34.150Z,79.4636
2023-05-01T10:00:35.174Z,78.2668
2023-05-01T10:01:36.248Z,77.3124
2023-05-01T10:02:37.244Z,77.5090
2023-05-01T10:03:38.626Z,77.9826
2023-05-01T10:04:39.295Z,78.1806
2023-05-01T10:05:40.374Z,78.7871
2023-05-01T10:06:41.474Z,78.7958
2023-05-01T10:07:42.505Z,77.9670
2023-05-01T10:08:43.417Z,77.2555
2023-05-01T10:09:44.543Z,77.1764
2023-05-01T10:10:45.564Z,78.4268
2023-05-01T10:11:46.534Z,79.2705
2023-05-01T10:12:47.627Z,77.5417
2023-05-01T10:13:48.602Z,78.0858
2023-05-01T10:14:49.721Z,78.6025
2023-05-01T10:15:50.836Z,78.5181
2023-05-01T10:16:51.794Z,77.7286
2023-05-01T10:17:52.818Z,77.7621
2023-05-01T10:18:53.775Z,78.1677
2023-05-01T10:19:55.227Z,78.3874
2023-05-01T10:20:55.909Z,78.1976
2023-05-01T10:21:56.943Z,78.1347
2023-05-01T10:22:57.984Z,78.2588
2023-05-01T10:23:59.011Z,78.2689
2023-05-01T10:25:00.047Z,78.6114
2023-05-01T10:26:02.508Z,78.6719
2023-05-01T10:27:02.108Z,78.1915
2023-05-01T10:28:03.071Z,77.7014
2023-05-01T10:29:04.122Z,77.5323
2023-05-01T10:30:05.300Z,77.2306
2023-05-01T10:31:06.261Z,76.6150
2023-05-01T10:32:07.219Z,75.3287
2023-05-01T10:33:08.368Z,76.3593
2023-05-01T10:34:09.287Z,75.6069
2023-05-01T10:35:10.390Z,76.5668
2023-05-01T10:36:11.432Z,76.6454
2023-05-01T10:37:12.455Z,75.5229
2023-05-01T10:38:13.426Z,75.3117
2023-05-01T10:39:14.508Z,75.9849
2023-05-01T10:40:15.590Z,75.8259
2023-05-01T10:41:16.588Z,74.4022
2023-05-01T10:42:17.634Z,71.1716
2023-05-01T10:43:18.653Z,71.9925
2023-05-01T10:44:19.717Z,73.1179
2023-05-01T10:45:20.752Z,74.2864
2023-05-01T10:46:21.914Z,73.3788
2023-05-01T10:47:22.808Z,74.8523
2023-05-01T10:48:23.805Z,75.3676
2023-05-01T10:49:24.878Z,74.1946
2023-05-01T10:50:25.952Z,74.9807
2023-05-01T10:51:28.271Z,73.0162
2023-05-01T10:52:27.969Z,72.3812
2023-05-01T10:53:28.986Z,72.1668
2023-05-01T10:54:29.991Z,72.7080
2023-05-01T10:55:31.185Z,73.7194
2023-05-01T10:56:32.164Z,75.0559
2023-05-01T10:57:33.149Z,75.2738
2023-05-01T10:58:34.162Z,75.0307
2023-05-01T10:59:35.275Z,75.8652
2023-05-01T11:00:36.277Z,75.7897
2023-05-01T11:01:37.389Z,75.4149
2023-05-01T11:02:38.336Z,75.2413
2023-05-01T11:03:39.360Z,76.0531
2023-05-01T11:04:40.336Z,76.4516
2023-05-01T11:05:41.582Z,76.1355
2023-05-01T11:06:42.642Z,74.1007
2023-05-01T11:07:43.478Z,74.6266
2023-05-01T11:08:45.544Z,73.6190
2023-05-01T11:09:45.506Z,75.4236
2023-05-01T11:10:46.616Z,75.5607
2023-05-01T11:11:47.674Z,75.8381
2023-05-01T11:12:48.679Z,74.3871
2023-05-01T11:13:49.675Z,75.1695
2023-05-01T11:14:50.697Z,76.1416
2023-05-01T11:15:51.844Z,75.6467
2023-05-01T11:16:52.865Z,75.7414
2023-05-01T11:17:53.911Z,77.5212
2023-05-01T11:18:54.855Z,77.2251
2023-05-01T11:19:55.886Z,78.3873
2023-05-01T11:20:56.944Z,77.8848
2023-05-01T11:21:57.973Z,77.1405
2023-05-01T11:22:59.026Z,77.9296
2023-05-01T11:24:00.023Z,76.0952
2023-05-01T11:25:01.056Z,76.8802
2023-05-01T11:26:02.092Z,76.8966
2023-05-01T11:27:03.187Z,76.4441
2023-05-01T11:28:04.178Z,77.6467
2023-05-01T11:29:05.270Z,77.5787
2023-05-01T11:30:06.226Z,78.2729
2023-05-01T11:31:07.364Z,78.1978
2023-05-01T11:32:08.483Z,78.7583
2023-05-01T11:33:10.964Z,78.4702
2023-05-01T11:34:10.361Z,78.7303
2023-05-01T11:35:11.411Z,78.8648
2023-05-01T11:36:12.457Z,79.9244
2023-05-01T11:37:13.504Z,78.8284
2023-05-01T11:38:14.465Z,78.2995
2023-05-01T11:39:15.557Z,77.6800
2023-05-01T11:40:16.571Z,78.0755
2023-05-01T11:41:19.254Z,78.6156
2023-05-01T11:42:18.721Z,78.3610
2023-05-01T11:43:19.755Z,76.9217
2023-05-01T11:44:20.694Z,75.7518
2023-05-01T11:45:21.772Z,76.0378
2023-05-01T11:46:22.846Z,76.8944
2023-05-01T11:47:23.898Z,76.0610
2023-05-01T11:48:24.843Z,76.1715
2023-05-01T11:49:25.876Z,76.1499
2023-05-01T11:50:26.895Z,76.1377
2023-05-01T11:51:28.048Z,76.1331
2023-05-01T11:52:29.026Z,74.8496
2023-05-01T11:53:30.049Z,75.0131
2023-05-01T11:54:31.039Z,74.7998
2023-05-01T11:55:32.080Z,75.2715
2023-05-01T11:56:33.162Z,76.1964
2023-05-01T11:57:34.188Z,76.3225
2023-05-01T11:58:35.227Z,75.3561
2023-05-01T11:59:36.190Z,76.9941
2023-05-01T12:00:37.216Z,75.8257
2023-05-01T12:01:38.296Z,75.5818
2023-05-01T12:02:39.428Z,74.6611
2023-05-01T12:03:40.420Z,74.8394
2023-05-01T12:04:41.384Z,75.2116
2023-05-01T12:05:42.419Z,75.0202
2023-05-01T12:06:43.541Z,74.5640
2023-05-01T12:07:44.510Z,75.4414
2023-05-01T12:08:45.513Z,74.8510
2023-05-01T12:09:46.568Z,74.4686
2023-05-01T12:10:47.563Z,76.1655
2023-05-01T12:11:50.537Z,75.5215
2023-05-01T12:12:49.724Z,75.6532
2023-05-01T12:13:50.637Z,75.8541
2023-05-01T12:14:51.669Z,75.4424
2023-05-01T12:15:52.755Z,75.9337
2023-05-01T12:16:53.871Z,75.8510
2023-05-01T12:17:54.856Z,75.3355